Time;durP1;ratioP1;P1;durP2;ratioP2;P2;SDS_P1;SDS_P2;PMS_P1;PMS_P2;Temp;Humidity;BMP_temperature;BMP_pressure;BME280_temperature;BME280_humidity;BME280_pressure;Samples;Min_cycle;Max_cycle;Signal;HPM_P1;HPM_P2
2022/08/14 00:02:22;;;;;;;13.82;7.38;;;;;;;22.79;48.06;101001.16;5092534;28;20049;-57
2022/08/14 00:04:48;;;;;;;9.10;7.45;;;;;;;22.81;47.74;100999.13;5089261;28;20438;-57
2022/08/14 00:07:18;;;;;;;11.88;7.15;;;;;;;22.76;47.98;101001.50;5092138;28;20115;-57
2022/08/14 00:09:44;;;;;;;11.38;7.45;;;;;;;22.70;47.86;100991.34;5092525;28;20024;-57
2022/08/14 00:12:11;;;;;;;8.70;7.57;;;;;;;22.62;48.09;100990.38;5100601;28;20028;-57
2022/08/14 00:14:38;;;;;;;14.05;8.32;;;;;;;22.45;48.30;100991.41;5110150;28;20491;-57
2022/08/14 00:17:05;;;;;;;10.13;7.78;;;;;;;22.53;48.23;100975.13;5101174;28;20397;-57
2022/08/14 00:19:30;;;;;;;12.82;8.35;;;;;;;22.42;48.79;100984.47;5115734;27;20107;-57
2022/08/14 00:21:56;;;;;;;13.13;8.18;;;;;;;22.51;48.45;100977.16;5109335;28;20122;-57
2022/08/14 00:24:22;;;;;;;12.20;8.45;;;;;;;22.30;49.14;100974.16;5110322;28;20066;-57
2022/08/14 00:26:50;;;;;;;10.95;7.70;;;;;;;22.35;48.73;100961.75;5095912;28;20024;-57
2022/08/14 00:29:16;;;;;;;9.90;8.10;;;;;;;22.38;48.67;100971.41;5090827;28;20020;-57
2022/08/14 00:31:42;;;;;;;11.38;8.07;;;;;;;22.17;49.00;100969.22;5087223;28;20045;-57
2022/08/14 00:34:08;;;;;;;14.77;7.75;;;;;;;22.26;49.47;100964.63;5079098;28;20022;-57
2022/08/14 00:36:33;;;;;;;11.82;7.38;;;;;;;22.14;49.70;100961.41;5103473;28;20036;-57
2022/08/14 00:38:59;;;;;;;13.15;7.60;;;;;;;22.14;49.42;100953.28;5074554;28;20089;-57
2022/08/14 00:41:30;;;;;;;10.93;7.78;;;;;;;22.16;49.12;100953.94;5108051;28;20024;-57
2022/08/14 00:43:56;;;;;;;13.43;8.15;;;;;;;22.15;49.29;100955.81;5098833;28;20027;-57
2022/08/14 00:46:22;;;;;;;8.82;7.88;;;;;;;22.04;49.23;100941.78;5095476;28;20047;-57
2022/08/14 00:48:48;;;;;;;15.15;7.90;;;;;;;22.11;49.41;100946.31;5108630;28;20035;-57
2022/08/14 00:51:14;;;;;;;9.45;7.20;;;;;;;21.93;49.78;100943.78;5098788;28;20122;-57
2022/08/14 00:53:41;;;;;;;11.13;7.28;;;;;;;21.88;50.21;100945.28;5095189;28;20500;-57
2022/08/14 00:56:07;;;;;;;10.40;7.38;;;;;;;21.85;49.93;100934.81;5108627;28;20478;-57
2022/08/14 00:58:34;;;;;;;9.70;7.57;;;;;;;21.81;49.75;100918.06;5109231;28;20028;-57
2022/08/14 01:01:07;;;;;;;9.38;7.75;;;;;;;21.77;50.09;100914.00;5101270;28;20023;-57
2022/08/14 01:03:38;;;;;;;8.00;7.20;;;;;;;21.88;49.88;100920.94;5090484;28;20530;-57
2022/08/14 01:06:08;;;;;;;11.25;7.78;;;;;;;21.75;49.91;100918.72;5101908;28;20020;-57
2022/08/14 01:08:36;;;;;;;8.95;7.40;;;;;;;21.85;49.98;100921.25;5107206;28;20024;-57
2022/08/14 01:11:02;;;;;;;9.45;7.57;;;;;;;21.76;50.18;100901.47;5101245;28;20039;-57
2022/08/14 01:13:31;;;;;;;8.63;7.55;;;;;;;21.85;50.33;100916.69;5107822;28;20032;-57
2022/08/14 01:15:59;;;;;;;;;;;;;;;22.04;48.44;100914.69;5075191;28;20029;-57
2022/08/14 01:21:14;;;;;;;7.82;7.03;;;;;;;21.66;50.79;100903.50;5071625;28;20097;-57
2022/08/14 01:23:44;;;;;;;11.25;7.78;;;;;;;21.60;50.82;100915.00;5092253;28;20035;-57
2022/08/14 01:26:11;;;;;;;8.13;7.22;;;;;;;21.58;50.46;100911.59;5103951;28;20028;-57
2022/08/14 01:28:38;;;;;;;7.15;6.40;;;;;;;21.60;50.69;100906.88;5105503;28;20058;-57
2022/08/14 01:31:13;;;;;;;11.82;6.65;;;;;;;21.49;50.66;100905.31;5109338;28;20039;-57
2022/08/14 01:33:43;;;;;;;8.15;7.32;;;;;;;21.52;51.27;100905.84;5109696;28;20047;-57
2022/08/14 01:36:09;;;;;;;7.80;7.00;;;;;;;21.47;51.32;100913.63;5095015;28;20020;-57
2022/08/14 01:38:35;;;;;;;9.07;7.22;;;;;;;21.28;51.75;100908.47;5090993;28;20035;-57
2022/08/14 01:41:12;;;;;;;10.80;7.10;;;;;;;21.29;51.87;100911.00;5091800;28;20036;-57
2022/08/14 01:44:00;;;;;;;8.18;7.30;;;;;;;21.33;51.55;100903.41;5093988;28;20047;-57
2022/08/14 01:46:31;;;;;;;8.40;6.80;;;;;;;21.13;52.68;100916.38;5104213;28;20039;-57
2022/08/14 01:48:57;;;;;;;8.18;7.38;;;;;;;21.14;52.48;100909.09;5096186;28;20074;-57
2022/08/14 01:51:25;;;;;;;8.05;7.25;;;;;;;21.14;52.70;100911.81;5111753;28;20073;-57
2022/08/14 01:53:57;;;;;;;7.72;7.03;;;;;;;21.01;52.78;100905.00;5109119;28;20393;-57
2022/08/14 01:56:35;;;;;;;8.63;7.32;;;;;;;21.05;52.76;100908.22;5110423;28;20375;-57
2022/08/14 01:59:01;;;;;;;12.05;7.78;;;;;;;20.90;53.62;100899.03;5100544;28;20432;-57
2022/08/14 02:01:27;;;;;;;10.00;7.53;;;;;;;20.86;53.53;100909.34;5112549;28;20055;-57
2022/08/14 02:03:52;;;;;;;8.10;7.35;;;;;;;20.90;53.75;100890.94;5112987;28;20363;-57
2022/08/14 02:06:18;;;;;;;8.65;7.85;;;;;;;20.76;54.35;100898.63;5106884;28;20032;-57
2022/08/14 02:08:50;;;;;;;10.02;7.82;;;;;;;20.87;53.94;100900.22;5112887;28;20039;-57
2022/08/14 02:11:16;;;;;;;10.18;7.60;;;;;;;20.84;53.88;100895.97;5104405;28;20016;-57
2022/08/14 02:13:49;;;;;;;8.88;7.68;;;;;;;20.62;54.37;100883.88;5092720;28;20078;-57
2022/08/14 02:16:25;;;;;;;10.35;7.97;;;;;;;20.83;53.96;100894.28;5092402;28;20528;-57
2022/08/14 02:18:52;;;;;;;14.65;8.45;;;;;;;20.79;54.01;100886.66;5109296;28;20439;-57
2022/08/14 02:21:21;;;;;;;12.60;8.20;;;;;;;20.75;54.19;100890.69;5110246;28;20015;-57
2022/08/14 02:23:48;;;;;;;;;;;;;;;21.00;51.67;100887.09;5104146;28;20046;-57
2022/08/14 02:26:22;;;;;;;10.50;8.15;;;;;;;20.67;54.51;100888.78;5103720;28;20007;-57
2022/08/14 02:28:49;;;;;;;10.93;7.78;;;;;;;20.64;54.66;100886.41;5076425;28;20132;-57
2022/08/14 02:31:16;;;;;;;13.70;8.35;;;;;;;20.51;54.76;100894.94;5115091;28;20066;-58
2022/08/14 02:33:42;;;;;;;12.57;8.07;;;;;;;20.42;55.30;100885.09;5110653;28;20066;-57
2022/08/14 02:36:09;;;;;;;8.50;7.68;;;;;;;20.43;55.45;100882.22;5112619;28;20024;-57
2022/08/14 02:38:37;;;;;;;8.57;7.70;;;;;;;20.39;55.48;100877.31;5093567;28;20510;-57
2022/08/14 02:41:07;;;;;;;11.02;7.63;;;;;;;20.38;55.63;100881.88;5101807;28;20069;-57
2022/08/14 02:43:33;;;;;;;9.55;7.70;;;;;;;20.41;55.07;100880.69;5090929;28;20028;-57
2022/08/14 02:45:58;;;;;;;15.00;7.57;;;;;;;20.24;55.60;100874.34;5076218;28;20105;-57
2022/08/14 02:48:30;;;;;;;10.00;7.70;;;;;;;20.30;55.62;100871.00;5090568;28;20052;-57
2022/08/14 02:50:56;;;;;;;12.32;7.60;;;;;;;20.26;55.50;100872.31;5113572;28;20367;-57
2022/08/14 02:53:22;;;;;;;9.10;7.30;;;;;;;20.23;55.68;100875.34;5109125;28;20031;-57
2022/08/14 02:55:47;;;;;;;13.07;8.32;;;;;;;20.12;55.96;100871.06;5095689;28;20028;-57
2022/08/14 02:58:16;;;;;;;11.45;7.43;;;;;;;20.16;55.61;100863.50;5091032;28;20024;-57
2022/08/14 03:00:42;;;;;;;13.93;7.43;;;;;;;20.14;56.33;100873.59;5081616;28;20015;-57
2022/08/14 03:03:08;;;;;;;8.90;7.75;;;;;;;20.12;56.34;100868.38;5113333;28;20541;-57
2022/08/14 03:05:34;;;;;;;7.95;7.20;;;;;;;20.19;56.33;100863.16;5110840;28;20081;-57
2022/08/14 03:08:09;;;;;;;8.90;7.13;;;;;;;20.09;56.39;100863.28;5107824;28;20027;-57
2022/08/14 03:10:36;;;;;;;10.52;7.60;;;;;;;20.00;56.77;100861.53;5114118;28;20019;-57
2022/08/14 03:13:03;;;;;;;9.23;7.50;;;;;;;20.06;56.60;100860.03;5100625;28;20034;-57
2022/08/14 03:15:52;;;;;;;10.57;7.70;;;;;;;20.05;56.65;100853.78;5093257;28;20031;-57
2022/08/14 03:18:23;;;;;;;15.35;8.32;;;;;;;19.98;56.76;100868.94;5093963;28;20019;-57
2022/08/14 03:20:49;;;;;;;16.35;8.27;;;;;;;19.97;56.84;100869.91;5111343;28;20023;-57
2022/08/14 03:23:16;;;;;;;9.93;8.07;;;;;;;20.01;56.52;100860.53;5106295;28;20396;-57
2022/08/14 03:25:41;;;;;;;12.25;8.13;;;;;;;19.83;57.04;100865.97;5099646;28;20046;-57
2022/08/14 03:28:08;;;;;;;12.25;7.70;;;;;;;19.83;57.14;100851.63;5113159;28;20454;-57
2022/08/14 03:30:36;;;;;;;13.68;8.00;;;;;;;19.88;57.27;100862.78;5102800;28;20028;-57
2022/08/14 03:33:01;;;;;;;8.68;7.78;;;;;;;19.80;57.41;100849.22;5105685;28;20485;-57
2022/08/14 03:35:28;;;;;;;11.30;7.97;;;;;;;19.84;57.61;100848.75;5093065;28;20040;-57
2022/08/14 03:37:54;;;;;;;10.70;7.88;;;;;;;19.78;57.62;100843.13;5093242;28;20024;-57
2022/08/14 03:40:21;;;;;;;9.75;7.97;;;;;;;19.74;57.88;100840.75;5090422;28;20038;-57
2022/08/14 03:42:47;;;;;;;10.40;8.02;;;;;;;19.65;58.45;100840.84;5090185;28;20035;-57
2022/08/14 03:45:14;;;;;;;11.70;7.82;;;;;;;19.68;58.82;100843.22;5097131;28;20020;-57
2022/08/14 03:47:40;;;;;;;9.63;7.88;;;;;;;19.56;59.16;100839.91;5092808;28;20056;-57
2022/08/14 03:50:09;;;;;;;12.38;8.40;;;;;;;19.66;59.04;100842.53;5107703;28;20043;-57
2022/08/14 03:52:38;;;;;;;10.82;8.13;;;;;;;19.67;58.08;100845.06;5105798;28;20024;-57
2022/08/14 03:55:08;;;;;;;9.98;8.20;;;;;;;19.60;58.46;100840.44;5104848;28;20023;-57
2022/08/14 03:57:36;;;;;;;18.30;8.90;;;;;;;19.43;58.93;100851.06;5090495;28;20024;-57
2022/08/14 04:00:09;;;;;;;13.13;8.38;;;;;;;19.33;59.25;100844.91;5103954;28;20471;-57
2022/08/14 04:02:37;;;;;;;10.88;8.40;;;;;;;19.53;58.59;100853.69;5111243;28;20493;-57
2022/08/14 04:05:09;;;;;;;12.95;8.18;;;;;;;19.46;58.68;100847.22;5106886;28;20024;-57
2022/08/14 04:07:37;;;;;;;14.38;8.13;;;;;;;19.47;58.71;100857.88;5107402;28;20023;-57
2022/08/14 04:10:04;;;;;;;12.75;8.25;;;;;;;19.42;58.63;100840.44;5098645;28;20028;-57
2022/08/14 04:12:29;;;;;;;9.00;8.20;;;;;;;19.35;58.97;100848.28;5098682;28;20115;-57
2022/08/14 04:14:56;;;;;;;9.85;8.85;;;;;;;19.35;59.01;100839.34;5089762;28;20589;-57
2022/08/14 04:17:21;;;;;;;9.73;8.18;;;;;;;19.36;58.86;100843.75;5096779;28;20031;-56
2022/08/14 04:19:46;;;;;;;14.15;8.50;;;;;;;19.39;58.70;100838.91;5094897;28;20493;-57
2022/08/14 04:22:13;;;;;;;11.50;8.27;;;;;;;19.37;58.80;100842.75;5105245;28;20036;-57
2022/08/14 04:24:39;;;;;;;10.07;8.20;;;;;;;19.37;58.78;100837.34;5092741;28;20408;-57
2022/08/14 04:27:09;;;;;;;19.17;8.98;;;;;;;19.34;58.83;100829.56;5104006;28;20098;-57
2022/08/14 04:29:40;;;;;;;13.52;8.85;;;;;;;19.28;58.96;100825.63;5100733;28;20028;-57
2022/08/14 04:32:08;;;;;;;12.82;8.27;;;;;;;19.28;58.93;100831.88;5100206;28;20182;-57
2022/08/14 04:34:35;;;;;;;12.02;8.45;;;;;;;19.23;59.09;100827.94;5097079;28;20028;-57
2022/08/14 04:45:16;;;;;;;10.00;8.98;;;;;;;19.21;59.66;100819.19;5102892;28;20038;-57
2022/08/14 04:50:29;;;;;;;9.27;8.35;;;;;;;19.19;59.83;100811.22;5110438;28;20521;-57
2022/08/14 04:52:55;;;;;;;9.88;8.93;;;;;;;19.20;59.92;100809.38;5092551;28;20067;-57
2022/08/14 04:55:22;;;;;;;12.88;9.23;;;;;;;19.08;60.24;100805.22;5091839;28;20027;-57
2022/08/14 04:57:48;;;;;;;12.18;9.40;;;;;;;19.13;59.98;100808.31;5077124;28;20033;-57
2022/08/14 05:00:13;;;;;;;10.90;9.93;;;;;;;19.13;60.38;100813.69;5088946;28;20031;-57
2022/08/14 05:02:39;;;;;;;10.98;8.98;;;;;;;19.03;60.53;100803.84;5104371;28;20118;-57
2022/08/14 05:05:07;;;;;;;9.93;8.93;;;;;;;19.06;60.69;100797.28;5109936;28;20092;-57
2022/08/14 05:07:32;;;;;;;10.02;9.02;;;;;;;19.04;60.83;100799.28;5090183;28;20477;-57
2022/08/14 05:09:58;;;;;;;9.43;8.52;;;;;;;19.03;61.20;100798.44;5108214;28;20030;-57
2022/08/14 05:12:23;;;;;;;10.52;9.52;;;;;;;19.01;61.51;100805.81;5099287;28;20035;-57
2022/08/14 05:14:50;;;;;;;14.52;9.25;;;;;;;18.98;61.72;100806.13;5088935;28;20046;-57
2022/08/14 05:17:15;;;;;;;10.57;9.57;;;;;;;19.11;61.57;100802.22;5122808;27;20054;-57
2022/08/14 05:19:41;;;;;;;10.63;9.38;;;;;;;19.25;61.46;100802.50;5089182;28;20036;-57
2022/08/14 05:22:09;;;;;;;12.15;8.88;;;;;;;19.19;61.61;100796.91;5119844;27;20134;-57
2022/08/14 05:24:36;;;;;;;10.23;9.00;;;;;;;19.28;62.04;100807.59;5092854;28;20043;-57
2022/08/14 05:27:02;;;;;;;10.75;9.40;;;;;;;19.24;62.02;100798.13;5072162;28;20031;-57
2022/08/14 05:29:28;;;;;;;10.70;9.23;;;;;;;19.23;62.26;100795.56;5096468;28;20032;-57
2022/08/14 05:31:55;;;;;;;9.90;8.88;;;;;;;19.37;61.82;100799.59;5093509;28;20039;-57
2022/08/14 05:34:27;;;;;;;9.50;8.50;;;;;;;19.35;61.84;100799.72;5094077;28;20093;-57
2022/08/14 05:36:56;;;;;;;13.65;9.27;;;;;;;19.59;61.05;100801.81;5088275;28;20024;-57
2022/08/14 05:39:22;;;;;;;9.27;7.95;;;;;;;19.65;61.08;100790.41;5093095;28;20395;-57
2022/08/14 05:41:48;;;;;;;10.93;8.60;;;;;;;19.74;61.24;100805.66;5101644;28;20028;-57
2022/08/14 05:44:14;;;;;;;12.68;8.07;;;;;;;19.82;60.66;100807.56;5110206;28;20055;-57
2022/08/14 05:46:39;;;;;;;9.25;8.43;;;;;;;19.91;60.24;100801.22;5112419;28;20427;-56
2022/08/14 05:49:05;;;;;;;12.20;8.77;;;;;;;20.07;59.95;100788.84;5081269;28;20055;-57
2022/08/14 05:51:31;;;;;;;10.27;9.07;;;;;;;20.22;58.48;100786.38;5095027;28;20039;-59
2022/08/14 05:53:59;;;;;;;11.43;8.82;;;;;;;20.33;58.80;100786.09;5105418;28;20036;-60
2022/08/14 05:56:25;;;;;;;14.32;9.15;;;;;;;20.40;59.55;100789.84;5094009;28;20039;-60
2022/08/14 05:58:51;;;;;;;10.23;9.23;;;;;;;20.45;59.56;100784.81;5084169;28;20043;-60
2022/08/14 06:01:16;;;;;;;9.45;8.55;;;;;;;20.58;59.26;100792.47;5109129;28;20377;-59
2022/08/14 06:03:43;;;;;;;9.63;8.80;;;;;;;20.68;57.56;100787.78;5090342;28;20040;-60
2022/08/14 06:06:08;;;;;;;9.50;8.70;;;;;;;20.75;57.95;100794.22;5086347;28;20055;-60
2022/08/14 06:08:34;;;;;;;9.50;8.32;;;;;;;20.85;57.64;100788.66;5102912;28;20043;-60
2022/08/14 06:11:04;;;;;;;10.18;8.75;;;;;;;21.00;57.90;100787.03;5093880;28;20383;-60
2022/08/14 06:13:31;;;;;;;11.30;8.98;;;;;;;21.11;57.37;100796.66;5092045;28;20062;-60
2022/08/14 06:15:56;;;;;;;8.52;7.60;;;;;;;21.16;57.32;100788.06;5072349;28;20031;-60
2022/08/14 06:18:22;;;;;;;9.40;8.25;;;;;;;21.33;57.33;100795.19;5102782;28;20443;-60
2022/08/14 06:20:49;;;;;;;11.23;8.35;;;;;;;21.48;54.74;100792.69;5113177;28;20019;-60
2022/08/14 06:23:14;;;;;;;9.07;7.57;;;;;;;21.59;54.79;100794.19;5112607;28;20110;-60
2022/08/14 06:25:40;;;;;;;9.43;7.65;;;;;;;21.67;55.46;100797.72;5111848;28;20035;-59
2022/08/14 06:28:06;;;;;;;11.63;8.10;;;;;;;21.81;54.51;100790.78;5096346;28;20039;-60
2022/08/14 06:30:33;;;;;;;11.15;8.30;;;;;;;21.90;54.47;100789.75;5091814;28;20032;-60
2022/08/14 06:33:01;;;;;;;9.32;8.20;;;;;;;22.07;53.41;100784.31;5097233;28;20026;-59
2022/08/14 06:35:30;;;;;;;11.18;7.85;;;;;;;22.09;53.55;100787.66;5107839;28;20027;-60
2022/08/14 06:37:59;;;;;;;9.85;8.85;;;;;;;22.17;52.70;100790.41;5106486;28;20020;-60
2022/08/14 06:40:27;;;;;;;11.00;8.18;;;;;;;22.27;52.92;100782.94;5100813;28;20020;-60
2022/08/14 06:42:54;;;;;;;9.13;8.33;;;;;;;22.41;53.23;100781.34;5110377;28;20032;-60
2022/08/14 06:45:19;;;;;;;12.07;8.13;;;;;;;22.43;54.32;100774.72;5111133;28;20059;-59
2022/08/14 06:47:46;;;;;;;11.50;8.02;;;;;;;22.63;52.50;100768.88;5102526;28;20098;-59
2022/08/14 06:50:18;;;;;;;12.60;7.72;;;;;;;22.61;51.40;100769.03;5097668;28;20032;-59
2022/08/14 06:52:44;;;;;;;8.82;7.93;;;;;;;22.80;51.85;100775.06;5098472;28;20525;-62
2022/08/14 06:55:13;;;;;;;9.57;8.63;;;;;;;22.81;51.19;100777.59;5096447;28;20029;-58
2022/08/14 06:57:44;;;;;;;;;;;;;;;22.85;51.26;100778.06;5114426;27;20041;-58
2022/08/14 07:00:18;;;;;;;8.27;7.50;;;;;;;22.82;51.50;100771.13;5093172;28;19908;-58
2022/08/14 07:05:47;;;;;;;8.60;7.80;;;;;;;22.95;52.12;100764.31;5110033;28;20038;-57
2022/08/14 07:08:14;;;;;;;9.68;7.40;;;;;;;22.95;51.74;100769.75;5113180;28;20024;-57
2022/08/14 07:10:42;;;;;;;8.45;7.43;;;;;;;23.01;50.02;100759.00;5114262;28;20035;-57
2022/08/14 07:13:11;;;;;;;9.27;7.03;;;;;;;23.06;50.51;100763.88;5113705;28;20096;-58
2022/08/14 07:15:39;;;;;;;11.40;7.25;;;;;;;23.11;50.48;100759.59;5101096;28;20019;-57
2022/08/14 07:18:06;;;;;;;9.30;7.30;;;;;;;23.18;49.23;100761.59;5099622;28;20023;-58
2022/08/14 07:20:34;;;;;;;8.07;6.93;;;;;;;23.33;49.73;100762.50;5109094;28;20008;-57
2022/08/14 07:23:04;;;;;;;12.25;6.50;;;;;;;23.37;50.14;100760.28;5092847;28;20036;-58
2022/08/14 07:25:30;;;;;;;6.85;6.22;;;;;;;23.46;50.74;100768.16;5110680;28;20467;-57
2022/08/14 07:27:56;;;;;;;7.38;6.70;;;;;;;23.46;52.34;100764.59;5112231;28;20110;-57
2022/08/14 07:30:22;;;;;;;8.10;7.15;;;;;;;23.60;50.04;100760.25;5112734;28;20047;-57
2022/08/14 07:32:47;;;;;;;7.63;6.80;;;;;;;23.72;50.01;100769.66;5110590;28;20023;-57
2022/08/14 07:35:14;;;;;;;12.02;7.93;;;;;;;23.76;48.57;100763.66;5100126;28;20030;-59
2022/08/14 07:37:40;;;;;;;7.90;7.15;;;;;;;23.87;49.42;100766.97;5092913;28;20494;-58
2022/08/14 07:40:05;;;;;;;9.35;7.22;;;;;;;23.89;47.76;100762.19;5091170;28;20986;-59
2022/08/14 07:42:34;;;;;;;11.90;6.90;;;;;;;23.95;47.59;100759.56;5110800;28;20035;-59
2022/08/14 07:45:02;;;;;;;12.02;7.05;;;;;;;24.00;47.54;100749.00;5106641;28;20363;-59
2022/08/14 07:47:30;;;;;;;7.53;6.22;;;;;;;24.14;47.79;100754.59;5093396;28;20048;-58
2022/08/14 07:50:17;;;;;;;9.77;6.70;;;;;;;24.19;47.79;100752.16;5103398;28;20032;-58
2022/08/14 07:52:44;;;;;;;7.43;6.65;;;;;;;24.28;47.38;100758.34;5092340;28;20103;-59
2022/08/14 07:55:11;;;;;;;9.02;6.60;;;;;;;24.40;47.29;100756.81;5088781;28;20037;-60
2022/08/14 07:57:42;;;;;;;9.93;5.95;;;;;;;24.48;47.67;100754.88;5104237;28;20020;-58
2022/08/14 08:00:11;;;;;;;9.15;6.32;;;;;;;24.57;47.30;100758.34;5095396;28;20046;-59
2022/08/14 08:02:39;;;;;;;10.95;6.78;;;;;;;24.75;46.86;100763.34;5083725;28;20043;-59
2022/08/14 08:05:08;;;;;;;9.25;6.05;;;;;;;24.74;45.43;100763.53;5093776;28;20028;-58
2022/08/14 08:07:34;;;;;;;6.70;6.10;;;;;;;24.80;46.63;100758.19;5090626;28;20028;-56
2022/08/14 08:10:29;;;;;;;6.93;6.32;;;;;;;24.83;44.75;100763.25;5091438;28;20093;-55
2022/08/14 08:12:51;;;;;;;7.55;5.45;;;;;;;24.92;46.07;100758.53;5092230;28;20042;-55
2022/08/14 08:15:19;;;;;;;6.18;5.55;;;;;;;25.09;44.63;100757.25;5095111;28;20020;-56
2022/08/14 08:17:44;;;;;;;9.45;5.60;;;;;;;25.17;44.00;100750.00;5079904;28;20470;-56
2022/08/14 08:20:18;;;;;;;9.35;5.88;;;;;;;25.28;44.61;100749.47;5091266;28;20028;-55
2022/08/14 08:22:45;;;;;;;6.68;5.60;;;;;;;25.37;43.61;100742.84;5090349;28;20482;-56
2022/08/14 08:25:16;;;;;;;8.73;6.13;;;;;;;25.45;44.18;100740.00;5090484;28;20028;-59
2022/08/14 08:27:41;;;;;;;6.90;5.90;;;;;;;25.55;43.80;100732.31;5091160;28;20019;-62
2022/08/14 08:30:10;;;;;;;6.45;5.85;;;;;;;25.60;43.42;100721.66;5090601;28;20046;-61
2022/08/14 08:32:41;;;;;;;8.55;6.15;;;;;;;25.69;43.23;100716.91;5091791;28;20073;-60
2022/08/14 08:35:24;;;;;;;9.73;6.90;;;;;;;25.85;43.72;100734.84;5091993;28;20371;-61
2022/08/14 08:37:51;;;;;;;6.38;5.10;;;;;;;26.04;42.49;100736.03;5099081;28;20031;-60
2022/08/14 08:40:27;;;;;;;5.93;5.40;;;;;;;26.03;43.11;100743.38;5097462;28;20020;-61
2022/08/14 08:42:53;;;;;;;6.70;5.65;;;;;;;26.15;42.41;100742.78;5097993;28;20588;-59
2022/08/14 08:45:20;;;;;;;7.75;5.25;;;;;;;26.10;40.85;100728.94;5091655;28;20111;-61
2022/08/14 08:47:49;;;;;;;12.20;6.35;;;;;;;26.12;40.54;100713.19;5091667;28;20071;-60
2022/08/14 08:50:20;;;;;;;10.55;6.13;;;;;;;26.45;40.92;100743.38;5092142;28;20028;-61
2022/08/14 08:52:51;;;;;;;6.45;5.60;;;;;;;26.53;39.84;100737.75;5096799;28;20028;-62
2022/08/14 08:55:27;;;;;;;7.25;5.50;;;;;;;26.63;40.30;100727.31;5092169;28;20032;-64
2022/08/14 08:57:59;;;;;;;6.15;5.18;;;;;;;26.72;39.72;100720.59;5090174;28;20028;-62
2022/08/14 09:00:30;;;;;;;7.50;5.53;;;;;;;26.84;40.72;100730.91;5091936;28;20539;-59
2022/08/14 09:03:02;;;;;;;6.80;5.43;;;;;;;27.03;39.79;100735.59;5086959;28;20502;-59
2022/08/14 09:05:28;;;;;;;7.72;5.57;;;;;;;26.99;38.83;100731.56;5100859;28;20034;-61
2022/08/14 09:07:53;;;;;;;7.38;5.75;;;;;;;26.98;38.13;100721.72;5102200;28;20107;-61
2022/08/14 09:10:21;;;;;;;6.20;5.45;;;;;;;27.04;39.16;100717.31;5109830;28;20111;-62
2022/08/14 09:12:50;;;;;;;5.82;5.20;;;;;;;27.23;40.27;100721.97;5099624;28;20418;-61
2022/08/14 09:15:15;;;;;;;5.60;5.10;;;;;;;27.36;38.88;100719.25;5105135;28;20655;-59
2022/08/14 09:17:43;;;;;;;7.32;5.47;;;;;;;27.40;37.95;100717.75;5088473;28;20048;-59
2022/08/14 09:20:11;;;;;;;8.75;5.53;;;;;;;27.53;37.60;100710.59;5086649;28;20027;-60
2022/08/14 09:22:36;;;;;;;4.95;4.53;;;;;;;27.53;36.20;100705.16;5089305;28;20027;-57
2022/08/14 09:25:04;;;;;;;8.10;4.93;;;;;;;27.59;37.30;100704.28;5101892;28;20092;-57
2022/08/14 09:27:30;;;;;;;7.13;4.70;;;;;;;27.69;37.52;100703.88;5087905;28;20032;-58
2022/08/14 09:29:55;;;;;;;5.80;4.70;;;;;;;27.74;36.92;100696.72;5104288;28;20402;-58
2022/08/14 09:32:31;;;;;;;6.13;4.80;;;;;;;27.75;37.07;100703.84;5086836;28;20059;-57
2022/08/14 09:35:14;;;;;;;8.38;4.65;;;;;;;27.90;36.36;100708.28;5100732;28;20028;-57
2022/08/14 09:37:54;;;;;;;4.40;4.00;;;;;;;27.99;36.57;100705.09;5101546;28;20024;-58
2022/08/14 09:40:29;;;;;;;8.02;4.75;;;;;;;28.06;36.73;100703.19;5094392;28;20167;-60
2022/08/14 09:43:28;;;;;;;7.07;4.57;;;;;;;28.03;37.14;100691.81;5086609;28;20523;-60
2022/08/14 09:45:57;;;;;;;9.27;5.10;;;;;;;28.12;37.10;100686.94;5060060;28;20032;-61
2022/08/14 09:48:24;;;;;;;8.20;4.85;;;;;;;28.21;37.45;100686.50;5091171;28;20059;-60
2022/08/14 09:50:52;;;;;;;8.10;5.00;;;;;;;28.33;36.83;100686.66;5109720;28;20137;-60
2022/08/14 09:53:36;;;;;;;6.15;4.97;;;;;;;28.42;37.23;100681.81;5094268;28;20069;-60
2022/08/14 09:56:03;;;;;;;9.45;4.20;;;;;;;28.38;35.88;100675.06;5091280;28;20395;-60
2022/08/14 09:58:57;;;;;;;6.45;4.18;;;;;;;28.61;35.89;100686.31;5089393;28;20028;-59
2022/08/14 10:01:23;;;;;;;5.60;4.35;;;;;;;28.82;34.88;100668.69;5069290;28;20062;-58
2022/08/14 10:03:55;;;;;;;10.73;5.00;;;;;;;28.85;36.18;100675.63;5078066;28;20063;-60
2022/08/14 10:06:28;;;;;;;6.88;5.35;;;;;;;28.88;36.38;100666.97;5107726;28;20035;-60
2022/08/14 10:09:03;;;;;;;9.23;5.25;;;;;;;28.98;36.40;100664.59;5103331;28;20034;-58
2022/08/14 10:11:36;;;;;;;6.88;4.80;;;;;;;29.08;36.94;100664.13;5091262;28;20390;-61
2022/08/14 10:14:16;;;;;;;7.75;5.03;;;;;;;29.06;36.09;100658.88;5089362;28;20504;-59
2022/08/14 10:16:56;;;;;;;6.90;4.40;;;;;;;28.99;36.07;100655.31;5094003;28;20040;-60
2022/08/14 10:19:24;;;;;;;8.30;4.78;;;;;;;29.21;35.83;100647.59;5091948;28;20027;-62
2022/08/14 10:21:56;;;;;;;11.32;4.57;;;;;;;29.33;36.13;100647.69;5093457;28;20070;-60
2022/08/14 10:24:24;;;;;;;7.35;5.13;;;;;;;29.35;34.82;100653.75;5098073;28;20024;-56
2022/08/14 10:26:57;;;;;;;6.68;5.00;;;;;;;29.31;34.59;100642.41;5114650;28;20422;-56
2022/08/14 10:29:35;;;;;;;7.82;5.00;;;;;;;29.50;34.89;100647.94;5095554;28;20032;-56
2022/08/14 10:32:02;;;;;;;5.20;4.70;;;;;;;29.61;35.32;100639.78;5107794;28;20020;-58
2022/08/14 10:34:35;;;;;;;6.22;5.20;;;;;;;29.74;34.78;100632.50;5106939;28;20028;-57
2022/08/14 10:37:15;;;;;;;7.28;4.50;;;;;;;29.61;34.78;100628.81;5114891;28;20030;-57
2022/08/14 10:40:02;;;;;;;5.65;5.05;;;;;;;29.73;34.64;100630.84;5083069;28;20145;-57
2022/08/14 10:42:39;;;;;;;5.30;4.80;;;;;;;29.79;35.17;100630.75;5078074;28;20122;-57
2022/08/14 10:45:29;;;;;;;7.55;4.45;;;;;;;29.93;34.67;100616.91;5085727;28;20111;-58
2022/08/14 10:47:54;;;;;;;5.28;4.65;;;;;;;30.04;34.44;100605.16;5084994;28;20104;-57
2022/08/14 10:50:35;;;;;;;4.78;4.38;;;;;;;30.18;35.00;100614.88;5091240;28;20697;-57
2022/08/14 10:53:04;;;;;;;8.18;5.30;;;;;;;30.29;34.05;100610.53;5074021;28;20042;-56
2022/08/14 10:55:38;;;;;;;6.07;4.90;;;;;;;30.42;34.39;100610.34;5072653;28;20117;-56
2022/08/14 10:58:10;;;;;;;7.32;5.57;;;;;;;30.52;34.50;100598.78;5076464;28;20305;-56
2022/08/14 11:00:40;;;;;;;8.18;5.57;;;;;;;30.52;34.34;100604.28;5075295;28;20443;-56
2022/08/14 11:03:16;;;;;;;7.47;5.22;;;;;;;30.59;34.13;100606.91;5112448;28;20493;-56
2022/08/14 11:05:46;;;;;;;6.20;4.38;;;;;;;30.80;32.57;100603.66;5113412;28;20539;-56
2022/08/14 11:08:14;;;;;;;7.68;4.20;;;;;;;30.79;31.73;100610.22;5111702;28;20031;-56
2022/08/14 11:10:55;;;;;;;6.72;4.05;;;;;;;30.86;32.43;100619.19;5072057;28;20039;-58
2022/08/14 11:13:23;;;;;;;5.43;4.13;;;;;;;30.85;32.33;100616.69;5112459;28;20024;-58
2022/08/14 11:15:50;;;;;;;8.43;4.55;;;;;;;30.88;32.15;100610.72;5114388;27;20084;-58
2022/08/14 11:18:16;;;;;;;4.07;3.78;;;;;;;30.89;32.17;100610.47;5104274;27;20027;-59
2022/08/14 11:20:48;;;;;;;4.70;4.30;;;;;;;30.86;32.10;100608.22;5094104;28;20027;-58
2022/08/14 11:23:14;;;;;;;6.50;4.50;;;;;;;30.90;31.83;100601.16;5093614;28;20027;-58
2022/08/14 11:25:43;;;;;;;4.60;4.13;;;;;;;30.81;31.33;100591.59;5092202;28;20024;-58
2022/08/14 11:28:10;;;;;;;4.97;3.78;;;;;;;30.98;30.56;100602.72;5091000;28;20538;-58
2022/08/14 11:30:39;;;;;;;4.68;3.92;;;;;;;30.89;30.74;100601.41;5108191;28;20035;-58
2022/08/14 11:33:06;;;;;;;5.25;3.97;;;;;;;31.00;31.04;100606.91;5075805;28;20024;-57
2022/08/14 11:35:36;;;;;;;5.55;3.63;;;;;;;30.82;30.76;100601.50;5077623;28;20034;-58
2022/08/14 11:38:03;;;;;;;5.40;4.25;;;;;;;30.75;31.75;100607.09;5110352;28;20513;-58
2022/08/14 11:40:36;;;;;;;4.53;3.80;;;;;;;30.69;30.91;100588.81;5113744;28;20020;-58
2022/08/14 11:43:07;;;;;;;8.35;4.13;;;;;;;30.59;30.30;100580.31;5105117;28;20054;-59
2022/08/14 11:45:38;;;;;;;7.28;4.05;;;;;;;30.58;30.96;100570.41;5092330;28;20411;-59
2022/08/14 11:48:18;;;;;;;4.53;4.07;;;;;;;30.86;30.91;100572.50;5072854;28;20056;-58